Time;durP1;ratioP1;P1;durP2;ratioP2;P2;SDS_P1;SDS_P2;PMS_P1;PMS_P2;Temp;Humidity;BMP_temperature;BMP_pressure;BME280_temperature;BME280_humidity;BME280_pressure;Samples;Min_cycle;Max_cycle;Signal;HPM_P1;HPM_P2
2023/08/11 00:01:51;;;;;;;6.60;3.70;;;18.70;1.00;;;;;;5032303;28;20222;-82
2023/08/11 00:04:18;;;;;;;5.45;4.13;;;18.60;99.90;;;;;;5034686;28;20194;-81
2023/08/11 00:06:45;;;;;;;4.97;3.65;;;18.60;1.00;;;;;;5035019;28;20207;-81
2023/08/11 00:09:13;;;;;;;6.00;3.58;;;18.60;99.90;;;;;;5032630;28;20195;-82
2023/08/11 00:11:42;;;;;;;8.00;3.85;;;18.50;1.00;;;;;;5032116;28;20689;-81
2023/08/11 00:14:09;;;;;;;4.18;3.67;;;18.40;1.00;;;;;;5033762;28;20183;-81
2023/08/11 00:16:37;;;;;;;7.60;4.53;;;18.50;99.90;;;;;;5038730;28;20199;-81
2023/08/11 00:19:06;;;;;;;6.28;4.78;;;18.40;1.00;;;;;;5035429;28;20225;-81
2023/08/11 00:21:33;;;;;;;7.07;4.28;;;18.50;1.00;;;;;;5041007;28;20214;-81
2023/08/11 00:24:00;;;;;;;6.47;4.22;;;18.40;1.00;;;;;;5044541;28;20286;-81
2023/08/11 00:26:30;;;;;;;4.63;4.22;;;18.50;99.90;;;;;;5028105;28;20207;-82
2023/08/11 00:29:11;;;;;;;5.10;4.13;;;18.50;99.90;;;;;;5035576;28;20558;-82
2023/08/11 00:31:38;;;;;;;5.47;4.28;;;18.50;1.00;;;;;;5031684;28;20298;-81
2023/08/11 00:34:07;;;;;;;4.55;4.15;;;18.60;99.90;;;;;;5034327;28;20213;-81
2023/08/11 00:36:35;;;;;;;4.88;4.00;;;18.60;1.00;;;;;;5035070;28;20206;-81
2023/08/11 00:39:02;;;;;;;4.07;3.67;;;18.70;99.90;;;;;;5036114;28;20996;-81
2023/08/11 00:41:30;;;;;;;4.57;4.18;;;18.60;99.90;;;;;;5035282;28;20692;-81
2023/08/11 00:43:57;;;;;;;5.50;4.68;;;18.60;99.90;;;;;;5025623;28;20202;-81
2023/08/11 00:46:25;;;;;;;5.75;4.53;;;18.50;1.00;;;;;;5034181;28;20222;-81
2023/08/11 00:48:53;;;;;;;4.63;4.00;;;18.60;1.00;;;;;;5027406;28;20199;-81
2023/08/11 00:51:24;;;;;;;5.72;4.18;;;18.50;1.00;;;;;;5032315;28;20226;-81
2023/08/11 00:53:52;;;;;;;4.82;4.05;;;18.40;99.90;;;;;;5035100;28;20199;-81
2023/08/11 00:56:22;;;;;;;5.07;4.60;;;18.50;1.00;;;;;;5031086;28;20217;-82
2023/08/11 00:58:52;;;;;;;5.20;4.47;;;18.50;1.00;;;;;;5025238;28;20195;-81
2023/08/11 01:01:20;;;;;;;8.02;5.05;;;18.50;1.00;;;;;;5034823;28;20578;-81
2023/08/11 01:03:48;;;;;;;5.00;4.50;;;18.50;99.90;;;;;;5032472;28;20211;-81
2023/08/11 01:06:24;;;;;;;5.05;3.97;;;18.40;35.00;;;;;;5032003;28;20225;-81
2023/08/11 01:09:03;;;;;;;6.85;4.50;;;18.30;99.90;;;;;;5049895;28;20205;-81
2023/08/11 01:11:38;;;;;;;5.18;4.13;;;18.50;1.00;;;;;;5017049;28;20219;-81
2023/08/11 01:14:15;;;;;;;4.65;4.22;;;18.50;1.00;;;;;;5008821;28;20205;-81
2023/08/11 01:16:45;;;;;;;6.53;4.30;;;18.50;1.00;;;;;;5033138;28;20206;-81
2023/08/11 01:19:18;;;;;;;7.80;4.35;;;18.40;7.20;;;;;;5034746;28;20199;-81
2023/08/11 01:21:48;;;;;;;5.68;4.35;;;18.50;99.90;;;;;;5032956;28;20219;-82
2023/08/11 01:24:17;;;;;;;6.03;4.38;;;18.40;99.90;;;;;;5034453;28;20199;-81
2023/08/11 01:26:46;;;;;;;5.18;4.70;;;18.50;99.90;;;;;;5030500;28;20227;-81
2023/08/11 01:29:14;;;;;;;5.72;4.43;;;18.40;1.00;;;;;;5030780;28;20196;-81
2023/08/11 01:31:42;;;;;;;6.32;4.25;;;18.30;1.00;;;;;;5032061;28;20230;-81
2023/08/11 01:34:09;;;;;;;4.47;4.03;;;18.40;1.00;;;;;;5018257;28;20218;-82
2023/08/11 01:36:37;;;;;;;5.15;4.25;;;18.50;1.00;;;;;;5037275;28;20199;-81
2023/08/11 01:39:05;;;;;;;6.13;4.47;;;18.60;99.90;;;;;;5032653;28;20673;-82
2023/08/11 01:41:34;;;;;;;7.22;4.22;;;18.50;92.80;;;;;;5033018;28;20219;-81
2023/08/11 01:44:01;;;;;;;6.32;4.30;;;18.50;56.60;;;;;;5033527;28;20203;-81
2023/08/11 01:46:31;;;;;;;6.57;4.30;;;18.30;1.00;;;;;;5028073;28;20311;-81
2023/08/11 01:48:59;;;;;;;4.22;3.83;;;18.20;1.00;;;;;;5033937;28;20195;-81
2023/08/11 01:51:27;;;;;;;5.15;4.10;;;18.30;1.00;;;;;;5032255;28;20230;-81
2023/08/11 01:53:54;;;;;;;5.32;4.10;;;18.40;99.90;;;;;;5064160;28;20207;-81
2023/08/11 01:56:22;;;;;;;6.30;4.35;;;18.40;99.90;;;;;;5027182;28;20195;-81
2023/08/11 01:58:51;;;;;;;4.72;4.03;;;18.40;1.00;;;;;;5041663;28;20207;-81
2023/08/11 02:01:19;;;;;;;5.40;4.45;;;18.40;1.00;;;;;;5030738;28;20220;-81
2023/08/11 02:03:46;;;;;;;6.07;4.57;;;18.20;1.00;;;;;;5032054;28;20210;-81
2023/08/11 02:06:14;;;;;;;16.33;13.60;;;18.30;99.90;;;;;;5027924;28;20211;-81
2023/08/11 02:08:42;;;;;;;7.57;6.32;;;18.20;1.00;;;;;;5033206;28;20661;-81
2023/08/11 02:11:09;;;;;;;8.40;5.35;;;18.20;1.00;;;;;;5023325;28;20226;-81
2023/08/11 02:13:36;;;;;;;4.88;4.35;;;18.20;1.00;;;;;;5047630;28;20194;-81
2023/08/11 02:16:05;;;;;;;5.68;4.15;;;18.10;1.00;;;;;;5032955;28;20214;-81
2023/08/11 02:18:33;;;;;;;7.60;4.50;;;18.00;99.90;;;;;;5033088;28;20551;-81
2023/08/11 02:21:01;;;;;;;5.32;3.97;;;18.00;1.00;;;;;;5014259;28;20214;-81
2023/08/11 02:23:29;;;;;;;6.65;4.07;;;18.10;1.00;;;;;;5034469;28;20203;-82
2023/08/11 02:25:57;;;;;;;4.68;3.97;;;17.80;1.00;;;;;;5032852;28;20199;-81
2023/08/11 02:28:25;;;;;;;4.68;4.22;;;17.80;99.90;;;;;;5032434;28;20562;-81
2023/08/11 02:30:52;;;;;;;3.90;3.60;;;17.80;99.90;;;;;;5018245;28;20204;-81
2023/08/11 02:33:22;;;;;;;4.72;3.83;;;17.90;99.90;;;;;;5032300;28;20199;-81
2023/08/11 02:35:49;;;;;;;4.90;3.72;;;18.10;99.90;;;;;;5031551;28;20203;-81
2023/08/11 02:38:17;;;;;;;4.82;3.85;;;18.10;99.90;;;;;;5034044;28;20160;-81
2023/08/11 02:40:45;;;;;;;5.20;3.53;;;17.90;1.00;;;;;;5012113;28;20218;-81
2023/08/11 02:43:12;;;;;;;4.72;4.05;;;17.90;1.00;;;;;;5030324;28;20219;-82
2023/08/11 02:45:39;;;;;;;5.20;4.22;;;18.00;1.00;;;;;;5031538;28;20218;-81
2023/08/11 02:48:07;;;;;;;5.07;3.97;;;17.90;99.90;;;;;;5019199;28;20218;-81
2023/08/11 02:50:37;;;;;;;4.95;3.83;;;18.00;1.00;;;;;;5050066;28;20209;-81
2023/08/11 02:53:05;;;;;;;5.20;4.07;;;17.90;99.90;;;;;;5023973;28;20581;-81
2023/08/11 02:55:32;;;;;;;3.88;3.58;;;17.80;1.00;;;;;;5030983;28;20201;-81
2023/08/11 02:58:00;;;;;;;4.90;3.90;;;17.80;16.50;;;;;;5032875;28;20190;-81
2023/08/11 03:00:28;;;;;;;7.45;4.22;;;17.90;99.90;;;;;;5029948;28;20210;-82
2023/08/11 03:02:56;;;;;;;4.10;3.63;;;17.70;99.90;;;;;;5027778;28;20582;-81
2023/08/11 03:05:24;;;;;;;5.78;3.72;;;17.90;1.00;;;;;;5045792;28;20199;-81
2023/08/11 03:07:56;;;;;;;6.28;3.97;;;17.90;99.90;;;;;;5031235;28;20214;-82
2023/08/11 03:10:24;;;;;;;3.95;3.55;;;17.90;99.90;;;;;;5028428;28;20195;-82
2023/08/11 03:12:51;;;;;;;3.85;3.47;;;17.90;1.00;;;;;;5027695;28;20609;-82
2023/08/11 03:15:19;;;;;;;4.60;3.40;;;17.80;1.00;;;;;;5022453;28;20191;-82
2023/08/11 03:17:47;;;;;;;5.68;3.58;;;17.80;99.90;;;;;;5031681;28;20195;-82
2023/08/11 03:20:15;;;;;;;6.35;3.90;;;17.60;1.00;;;;;;5030835;28;20195;-82
2023/08/11 03:22:44;;;;;;;6.70;4.55;;;17.70;15.10;;;;;;5031339;28;20230;-82
2023/08/11 03:25:14;;;;;;;4.68;3.85;;;17.70;1.00;;;;;;5031299;28;20205;-82
2023/08/11 03:27:42;;;;;;;5.03;3.63;;;17.70;1.00;;;;;;5030880;28;21003;-81
2023/08/11 03:30:13;;;;;;;5.38;3.90;;;17.70;99.90;;;;;;5038691;28;20213;-82
2023/08/11 03:32:43;;;;;;;6.22;4.10;;;17.70;1.00;;;;;;5047696;28;20219;-82
2023/08/11 03:35:12;;;;;;;6.78;5.00;;;17.60;1.00;;;;;;5050025;28;20198;-81
2023/08/11 03:37:40;;;;;;;6.05;4.07;;;17.60;1.00;;;;;;5015871;28;20199;-81
2023/08/11 03:40:12;;;;;;;5.35;4.00;;;17.50;99.90;;;;;;5015562;28;20209;-82
2023/08/11 03:42:42;;;;;;;4.78;3.58;;;17.50;99.90;;;;;;5004530;28;20709;-82
2023/08/11 03:45:12;;;;;;;4.47;4.10;;;17.50;1.00;;;;;;5030604;28;20654;-81
2023/08/11 03:47:41;;;;;;;6.15;3.83;;;17.50;1.00;;;;;;5032512;28;20215;-81
2023/08/11 03:50:10;;;;;;;6.22;4.18;;;17.60;99.90;;;;;;5031090;28;20210;-81
2023/08/11 03:52:38;;;;;;;6.03;3.88;;;17.60;1.00;;;;;;5027770;28;20237;-82
2023/08/11 03:55:09;;;;;;;5.50;4.00;;;17.50;99.90;;;;;;5033787;28;20211;-81
2023/08/11 03:57:37;;;;;;;8.50;4.15;;;17.60;99.90;;;;;;5017336;28;20558;-81
2023/08/11 04:00:14;;;;;;;3.58;3.28;;;17.50;1.00;;;;;;5020549;28;20221;-81
2023/08/11 04:02:43;;;;;;;5.43;3.70;;;17.60;1.00;;;;;;5019795;28;20226;-81
2023/08/11 04:05:13;;;;;;;4.43;3.60;;;17.60;99.90;;;;;;5039014;28;20205;-81
2023/08/11 04:07:42;;;;;;;4.75;3.85;;;17.70;99.90;;;;;;5038440;28;20221;-81
2023/08/11 04:10:11;;;;;;;5.18;4.65;;;17.70;8.10;;;;;;5054807;28;20205;-81
2023/08/11 04:12:39;;;;;;;6.18;4.00;;;17.60;1.00;;;;;;5019034;28;20222;-81
2023/08/11 04:15:09;;;;;;;6.47;4.10;;;17.50;99.90;;;;;;5019577;28;20202;-81
2023/08/11 04:17:36;;;;;;;5.25;4.18;;;17.40;1.00;;;;;;5035206;28;20207;-82
2023/08/11 04:20:12;;;;;;;5.32;4.15;;;17.20;99.90;;;;;;5035433;28;20592;-81
2023/08/11 04:22:39;;;;;;;4.10;3.70;;;17.20;85.00;;;;;;5035251;28;20623;-81
2023/08/11 04:25:11;;;;;;;4.22;3.83;;;17.10;99.90;;;;;;5035009;28;20206;-81
2023/08/11 04:27:42;;;;;;;6.00;4.38;;;17.20;99.90;;;;;;5067563;28;20219;-81
2023/08/11 04:30:12;;;;;;;5.03;3.97;;;17.30;1.00;;;;;;5033645;28;20206;-81
2023/08/11 04:32:41;;;;;;;5.55;3.90;;;17.20;99.90;;;;;;5048018;28;20226;-81
2023/08/11 04:35:09;;;;;;;6.03;3.83;;;17.30;57.00;;;;;;5019399;28;20202;-81
2023/08/11 04:37:38;;;;;;;6.47;4.13;;;17.40;1.00;;;;;;5034886;28;20202;-82
2023/08/11 04:40:09;;;;;;;5.45;4.43;;;17.30;1.00;;;;;;5041297;28;20684;-81
2023/08/11 04:42:37;;;;;;;5.03;4.15;;;17.30;99.90;;;;;;5034948;28;20226;-81
2023/08/11 04:45:06;;;;;;;6.32;4.22;;;17.30;1.00;;;;;;5017903;28;20207;-81
2023/08/11 04:47:35;;;;;;;4.70;4.22;;;17.30;1.00;;;;;;5034853;28;20226;-81
2023/08/11 04:50:07;;;;;;;4.63;3.97;;;17.20;97.60;;;;;;5025854;28;20191;-82
2023/08/11 04:52:35;;;;;;;6.57;4.38;;;17.10;99.90;;;;;;5054141;28;20610;-82
2023/08/11 04:55:04;;;;;;;4.60;4.13;;;17.20;99.90;;;;;;5018086;28;20195;-82
2023/08/11 04:57:31;;;;;;;4.38;3.97;;;17.20;99.90;;;;;;5042644;28;20198;-82
2023/08/11 05:00:00;;;;;;;5.68;3.80;;;17.10;99.90;;;;;;5042386;28;20656;-81
2023/08/11 05:02:27;;;;;;;5.18;4.50;;;17.10;99.90;;;;;;5027299;28;20219;-82
2023/08/11 05:04:56;;;;;;;5.03;3.80;;;17.10;99.90;;;;;;5026392;28;20220;-82
2023/08/11 05:07:23;;;;;;;4.97;4.03;;;17.10;1.00;;;;;;5044567;28;20199;-81
2023/08/11 05:10:01;;;;;;;5.30;4.05;;;17.10;1.00;;;;;;5015107;28;20207;-81
2023/08/11 05:12:30;;;;;;;4.45;3.63;;;17.10;1.00;;;;;;5031503;28;20229;-82
2023/08/11 05:14:57;;;;;;;3.90;3.58;;;17.10;1.00;;;;;;5027897;28;20222;-81
2023/08/11 05:17:25;;;;;;;4.68;3.67;;;17.10;1.00;;;;;;5043347;28;20215;-82
2023/08/11 05:19:52;;;;;;;5.97;3.60;;;17.20;1.00;;;;;;5029978;28;20222;-82
2023/08/11 05:22:22;;;;;;;4.72;3.90;;;17.30;99.90;;;;;;5032984;28;20234;-82
2023/08/11 05:25:08;;;;;;;4.97;4.15;;;17.40;81.30;;;;;;5010687;28;20717;-82
2023/08/11 05:27:35;;;;;;;8.20;3.63;;;17.40;1.00;;;;;;5034341;28;20214;-81
2023/08/11 05:30:03;;;;;;;5.05;3.90;;;17.50;1.00;;;;;;5012337;28;20203;-82
2023/08/11 05:32:31;;;;;;;4.78;4.13;;;17.60;99.90;;;;;;5032761;28;20233;-81
2023/08/11 05:35:09;;;;;;;4.28;3.88;;;17.60;1.00;;;;;;5030399;28;20203;-82
2023/08/11 05:38:03;;;;;;;5.72;3.58;;;17.70;1.00;;;;;;5032123;28;20653;-83
2023/08/11 05:40:30;;;;;;;4.43;4.03;;;17.80;99.90;;;;;;5046831;28;20208;-82
2023/08/11 05:42:58;;;;;;;4.88;4.28;;;17.80;1.00;;;;;;5031378;28;20227;-82
2023/08/11 05:45:28;;;;;;;4.75;3.90;;;17.90;20.30;;;;;;5043375;28;20204;-82
2023/08/11 05:47:56;;;;;;;6.97;3.97;;;18.00;1.00;;;;;;5029114;28;20234;-84
2023/08/11 05:50:24;;;;;;;4.15;3.40;;;18.00;99.90;;;;;;5048336;28;20694;-83
2023/08/11 05:52:52;;;;;;;4.75;3.60;;;18.10;1.00;;;;;;5043669;28;20227;-81
2023/08/11 05:55:31;;;;;;;4.50;3.83;;;18.10;99.90;;;;;;5047283;28;20214;-81
2023/08/11 05:58:17;;;;;;;4.93;4.03;;;18.20;99.90;;;;;;5045217;28;20206;-81
2023/08/11 06:00:45;;;;;;;4.32;3.92;;;18.20;1.00;;;;;;5044724;28;20214;-82
2023/08/11 06:03:12;;;;;;;4.65;3.85;;;18.30;99.90;;;;;;5031962;28;20692;-81
2023/08/11 06:05:39;;;;;;;5.10;3.83;;;18.30;99.90;;;;;;5037725;28;20211;-81
2023/08/11 06:08:07;;;;;;;7.20;4.15;;;18.40;1.00;;;;;;5013016;28;20219;-82
2023/08/11 06:10:36;;;;;;;6.75;4.05;;;18.50;99.90;;;;;;5036158;28;20217;-81
2023/08/11 06:13:03;;;;;;;4.45;3.50;;;18.50;99.90;;;;;;5049068;28;20214;-81
2023/08/11 06:15:31;;;;;;;5.40;3.75;;;18.60;90.30;;;;;;5041594;28;20202;-81
2023/08/11 06:17:58;;;;;;;5.30;3.83;;;18.70;1.00;;;;;;5039081;28;20214;-81
2023/08/11 06:20:27;;;;;;;5.53;4.00;;;18.70;1.00;;;;;;5054382;28;20207;-81
2023/08/11 06:22:54;;;;;;;4.28;3.63;;;18.80;1.00;;;;;;5033139;28;20219;-81
2023/08/11 06:25:23;;;;;;;4.82;3.47;;;18.80;1.00;;;;;;5031180;28;20662;-81
2023/08/11 06:27:52;;;;;;;5.72;3.55;;;18.90;1.00;;;;;;5048289;28;20199;-81
2023/08/11 06:30:19;;;;;;;5.00;3.50;;;19.00;99.90;;;;;;5032377;28;20203;-81
2023/08/11 06:32:47;;;;;;;6.10;3.53;;;19.10;1.00;;;;;;5029719;28;20231;-81
2023/08/11 06:35:27;;;;;;;8.73;3.92;;;19.20;1.00;;;;;;5048616;28;20191;-81
2023/08/11 06:37:54;;;;;;;6.72;3.72;;;19.30;99.90;;;;;;5048697;28;20199;-81
2023/08/11 06:40:22;;;;;;;4.85;3.95;;;19.40;1.00;;;;;;5052209;28;20198;-81
2023/08/11 06:42:49;;;;;;;5.30;4.20;;;19.30;1.00;;;;;;5033829;28;20557;-81
2023/08/11 06:45:18;;;;;;;5.18;3.40;;;19.40;99.90;;;;;;5032502;28;20199;-81
2023/08/11 06:47:46;;;;;;;5.63;3.42;;;19.40;99.90;;;;;;5029710;28;20203;-82
2023/08/11 06:50:14;;;;;;;6.68;3.67;;;19.50;99.90;;;;;;5026281;28;20219;-82
2023/08/11 06:52:41;;;;;;;4.68;3.45;;;19.60;99.90;;;;;;5023922;28;20231;-82
2023/08/11 06:55:09;;;;;;;3.30;3.00;;;19.70;99.90;;;;;;5014315;28;20213;-82
2023/08/11 06:57:37;;;;;;;6.70;3.75;;;19.70;99.90;;;;;;5041854;28;20198;-82
2023/08/11 07:00:07;;;;;;;3.83;3.20;;;19.80;1.00;;;;;;5047812;28;20206;-82
2023/08/11 07:02:36;;;;;;;5.57;3.55;;;19.80;1.00;;;;;;5046154;28;20222;-82
2023/08/11 07:05:05;;;;;;;3.70;3.30;;;19.90;1.00;;;;;;5024581;28;20202;-82
2023/08/11 07:07:32;;;;;;;4.43;3.17;;;19.90;1.00;;;;;;5045285;28;20203;-82
2023/08/11 07:10:00;;;;;;;4.90;3.05;;;19.90;1.00;;;;;;5052617;28;20225;-82
2023/08/11 07:12:27;;;;;;;4.68;3.25;;;20.00;1.00;;;;;;5033277;28;20234;-82
2023/08/11 07:14:56;;;;;;;4.32;3.50;;;20.00;1.00;;;;;;5030565;28;20203;-82
2023/08/11 07:17:24;;;;;;;5.78;3.88;;;20.20;1.00;;;;;;5034480;28;20211;-82
2023/08/11 07:19:52;;;;;;;6.45;3.20;;;20.30;1.00;;;;;;5031810;28;20206;-82
2023/08/11 07:22:20;;;;;;;7.25;3.30;;;20.40;1.00;;;;;;5010714;28;20235;-82
2023/08/11 07:24:47;;;;;;;5.20;2.83;;;20.50;1.00;;;;;;5010708;28;20227;-82
2023/08/11 07:27:15;;;;;;;5.75;3.03;;;20.50;1.00;;;;;;5043243;28;20678;-82
2023/08/11 07:29:42;;;;;;;3.95;2.97;;;20.60;1.00;;;;;;5032265;28;20229;-82
2023/08/11 07:32:10;;;;;;;5.55;3.47;;;20.70;1.00;;;;;;5045879;28;20219;-82
2023/08/11 07:34:46;;;;;;;4.40;3.05;;;20.80;99.90;;;;;;5033229;28;20221;-82
2023/08/11 07:37:15;;;;;;;4.85;2.53;;;20.90;99.90;;;;;;5025376;28;20195;-82
2023/08/11 07:39:43;;;;;;;3.75;2.42;;;20.90;75.70;;;;;;5046054;28;20203;-82
2023/08/11 07:42:10;;;;;;;3.15;2.38;;;21.00;1.00;;;;;;5049942;28;20220;-82
2023/08/11 07:44:38;;;;;;;6.53;2.40;;;21.00;1.00;;;;;;5047346;28;20213;-82
2023/08/11 07:47:05;;;;;;;4.63;2.55;;;21.00;1.00;;;;;;5024602;28;20199;-82
2023/08/11 07:49:33;;;;;;;3.90;2.95;;;21.10;1.00;;;;;;5043895;28;20218;-82
2023/08/11 07:52:11;;;;;;;3.45;2.78;;;21.30;1.00;;;;;;5024060;28;20228;-81
2023/08/11 07:54:40;;;;;;;3.40;2.92;;;21.30;1.00;;;;;;5029848;28;20217;-82
2023/08/11 07:57:07;;;;;;;4.43;2.72;;;21.40;1.00;;;;;;5031817;28;20214;-82
2023/08/11 07:59:35;;;;;;;2.50;2.22;;;21.60;99.90;;;;;;5029672;28;20207;-82
2023/08/11 08:02:03;;;;;;;4.88;2.85;;;21.60;99.90;;;;;;5026907;28;20211;-82
2023/08/11 08:04:31;;;;;;;3.40;2.42;;;21.70;99.90;;;;;;5008244;28;20207;-82
2023/08/11 08:06:59;;;;;;;3.35;2.30;;;21.70;99.90;;;;;;5041258;28;20215;-81
2023/08/11 08:09:26;;;;;;;6.15;2.40;;;21.90;99.90;;;;;;5028984;28;20217;-82
2023/08/11 08:11:55;;;;;;;4.28;2.67;;;22.00;99.90;;;;;;5029296;28;20223;-82
2023/08/11 08:14:34;;;;;;;4.82;2.80;;;22.00;99.90;;;;;;5048077;28;20214;-82
2023/08/11 08:17:02;;;;;;;3.92;2.60;;;22.00;99.90;;;;;;5035618;28;20210;-82
2023/08/11 08:19:36;;;;;;;4.07;2.70;;;22.00;99.90;;;;;;5011663;28;20346;-83
2023/08/11 08:22:03;;;;;;;2.65;2.45;;;22.10;99.90;;;;;;5036364;28;20234;-82
2023/08/11 08:24:31;;;;;;;4.15;2.83;;;22.20;99.90;;;;;;5030828;28;20210;-82
2023/08/11 08:27:00;;;;;;;3.72;2.88;;;22.20;99.90;;;;;;5031195;28;20582;-82
2023/08/11 08:29:27;;;;;;;4.07;2.88;;;22.30;99.90;;;;;;5024877;28;20705;-82
2023/08/11 08:31:55;;;;;;;3.47;2.63;;;22.30;99.90;;;;;;5028662;28;20223;-82
2023/08/11 08:34:22;;;;;;;3.90;2.70;;;22.30;99.90;;;;;;5029739;28;20583;-82
2023/08/11 08:36:50;;;;;;;3.33;2.60;;;22.30;99.90;;;;;;5032652;28;20202;-83
2023/08/11 08:39:17;;;;;;;3.22;2.92;;;22.50;99.90;;;;;;5037779;28;20209;-82
2023/08/11 08:41:47;;;;;;;3.55;2.80;;;22.60;99.90;;;;;;5044977;28;20250;-83
2023/08/11 08:44:16;;;;;;;4.40;2.45;;;22.70;99.90;;;;;;5033883;28;20199;-82
2023/08/11 08:46:43;;;;;;;4.07;3.13;;;22.70;99.90;;;;;;5034260;28;20214;-82
2023/08/11 08:49:17;;;;;;;3.47;3.00;;;22.60;99.90;;;;;;5019137;28;20239;-82
2023/08/11 08:51:45;;;;;;;4.63;2.90;;;22.60;99.90;;;;;;5031469;28;20234;-82
2023/08/11 08:54:13;;;;;;;6.45;3.30;;;22.50;99.90;;;;;;5038472;28;20203;-82
2023/08/11 08:56:41;;;;;;;3.67;2.58;;;22.60;99.90;;;;;;5049442;28;20222;-83
2023/08/11 08:59:11;;;;;;;6.18;2.50;;;23.00;83.60;;;;;;5041640;28;20199;-82
2023/08/11 09:01:40;;;;;;;3.67;2.75;;;22.90;37.60;;;;;;5043649;28;20226;-83
2023/08/11 09:04:08;;;;;;;2.85;2.55;;;23.00;52.70;;;;;;5038874;28;20203;-82
2023/08/11 09:06:36;;;;;;;4.82;3.20;;;23.00;29.00;;;;;;5033577;28;20202;-82
2023/08/11 09:09:12;;;;;;;6.13;2.65;;;23.20;3.90;;;;;;5041193;28;20203;-82
2023/08/11 09:11:40;;;;;;;3.65;2.60;;;23.40;1.00;;;;;;5040268;28;20222;-82
2023/08/11 09:14:09;;;;;;;4.78;2.78;;;23.40;1.00;;;;;;5019039;28;20269;-82
2023/08/11 09:16:37;;;;;;;4.20;2.65;;;23.30;1.00;;;;;;5034098;28;20214;-83
2023/08/11 09:19:08;;;;;;;3.80;2.72;;;23.30;1.00;;;;;;5032826;28;20218;-83
2023/08/11 09:21:36;;;;;;;4.43;2.85;;;23.40;1.00;;;;;;5013481;28;20261;-83
2023/08/11 09:24:29;;;;;;;3.90;2.50;;;23.40;2.90;;;;;;5049442;28;20190;-82
2023/08/11 09:26:59;;;;;;;3.97;2.78;;;23.30;1.00;;;;;;5032511;28;20198;-83
2023/08/11 09:29:28;;;;;;;3.60;3.00;;;23.40;1.00;;;;;;5027993;28;20207;-83
2023/08/11 09:31:56;;;;;;;3.45;2.90;;;23.40;1.00;;;;;;5015564;28;20555;-82
2023/08/11 09:34:30;;;;;;;5.38;2.85;;;23.60;1.00;;;;;;5021103;28;20203;-83
2023/08/11 09:37:02;;;;;;;3.45;2.90;;;23.70;1.00;;;;;;5044621;28;20207;-83
2023/08/11 09:39:32;;;;;;;4.07;2.47;;;23.80;1.00;;;;;;5032049;28;20214;-82
2023/08/11 09:42:06;;;;;;;6.00;2.83;;;23.70;1.00;;;;;;5034280;28;20218;-83
2023/08/11 09:44:41;;;;;;;4.05;2.35;;;23.70;1.00;;;;;;5006433;28;20202;-82
2023/08/11 09:47:11;;;;;;;3.45;2.42;;;23.70;1.00;;;;;;5048780;28;20203;-82
2023/08/11 09:49:45;;;;;;;4.57;2.70;;;23.80;1.00;;;;;;5032011;28;20213;-83
2023/08/11 09:53:05;;;;;;;;;;;;;;;;;;;;;
2023/08/11 09:56:47;;;;;;;;;;;;;;;;;;;;;
2023/08/11 09:59:28;;;;;;;3.63;2.63;;;24.10;1.00;;;;;;4948191;28;20209;-81
2023/08/11 10:02:00;;;;;;;2.90;2.60;;;24.00;1.00;;;;;;5034543;28;20231;-81
2023/08/11 10:04:58;;;;;;;;;;;;;;;;;;;;;
2023/08/11 10:07:35;;;;;;;3.80;2.50;;;24.20;1.00;;;;;;5048179;28;20192;-81
2023/08/11 10:10:37;;;;;;;;;;;;;;;;;;;;;
2023/08/11 10:13:17;;;;;;;3.05;2.38;;;24.40;1.00;;;;;;4971671;28;20224;-81
2023/08/11 10:15:48;;;;;;;4.75;2.47;;;24.50;1.00;;;;;;5009350;28;20206;-82
2023/08/11 10:18:17;;;;;;;2.83;2.20;;;24.50;1.00;;;;;;5037029;28;20683;-82
2023/08/11 10:20:46;;;;;;;4.95;2.70;;;24.70;1.00;;;;;;5033629;28;20203;-82
2023/08/11 10:23:16;;;;;;;5.20;2.38;;;25.00;1.00;;;;;;5032600;28;20221;-82
2023/08/11 10:25:44;;;;;;;4.13;2.58;;;25.10;1.00;;;;;;5032583;28;20214;-82
2023/08/11 10:28:15;;;;;;;6.82;3.00;;;24.90;1.00;;;;;;5032852;28;20207;-82
2023/08/11 10:30:43;;;;;;;4.13;2.97;;;24.90;1.00;;;;;;5034999;28;20689;-82
2023/08/11 10:33:11;;;;;;;4.57;2.70;;;24.90;1.00;;;;;;5032632;28;20230;-82
2023/08/11 10:35:50;;;;;;;3.38;2.28;;;25.20;1.00;;;;;;5033608;28;20207;-82
2023/08/11 10:38:24;;;;;;;3.28;2.67;;;25.40;1.00;;;;;;5027379;28;20199;-82
2023/08/11 10:40:58;;;;;;;3.22;2.28;;;25.40;1.00;;;;;;5033149;28;20213;-82
2023/08/11 10:43:31;;;;;;;3.65;2.80;;;25.50;1.00;;;;;;5013065;28;20570;-82
2023/08/11 10:46:16;;;;;;;3.05;2.60;;;25.60;1.00;;;;;;5062082;28;20569;-82
2023/08/11 10:48:43;;;;;;;4.25;2.40;;;25.70;1.00;;;;;;5047844;28;20206;-83
2023/08/11 10:51:42;;;;;;;3.05;2.47;;;25.80;1.00;;;;;;5033460;28;20584;-83
2023/08/11 10:54:12;;;;;;;3.40;2.50;;;25.80;1.00;;;;;;5047108;28;20207;-82
2023/08/11 10:56:47;;;;;;;3.17;2.58;;;25.50;1.00;;;;;;5057611;28;20551;-82
2023/08/11 10:59:17;;;;;;;5.03;2.90;;;25.50;1.00;;;;;;5059706;28;20195;-82
2023/08/11 11:01:46;;;;;;;4.28;2.80;;;25.50;1.00;;;;;;5021596;28;20219;-83
2023/08/11 11:04:15;;;;;;;4.03;2.65;;;25.70;1.00;;;;;;5044127;28;20275;-83
2023/08/11 11:06:44;;;;;;;3.97;2.50;;;26.00;1.00;;;;;;5030070;28;20206;-83
2023/08/11 11:09:14;;;;;;;6.65;2.78;;;25.90;1.00;;;;;;5049528;28;20214;-83
2023/08/11 11:11:46;;;;;;;3.45;2.40;;;26.20;1.00;;;;;;5033031;28;20222;-82
2023/08/11 11:14:15;;;;;;;4.40;2.35;;;26.00;1.00;;;;;;5034549;28;20206;-83
2023/08/11 11:16:54;;;;;;;2.65;2.45;;;26.10;1.00;;;;;;5059300;28;20210;-83
2023/08/11 11:19:24;;;;;;;3.38;2.70;;;26.40;1.00;;;;;;5010963;28;20215;-83
2023/08/11 11:21:51;;;;;;;3.88;2.92;;;26.40;1.00;;;;;;5034238;28;20207;-82
2023/08/11 11:24:27;;;;;;;5.18;3.00;;;26.20;1.00;;;;;;5053394;28;20301;-83
2023/08/11 11:26:54;;;;;;;3.72;2.47;;;26.20;1.00;;;;;;5054660;28;20190;-82
2023/08/11 11:29:23;;;;;;;2.97;2.45;;;26.10;1.00;;;;;;5038933;28;20666;-83
2023/08/11 11:32:07;;;;;;;3.65;2.75;;;26.10;1.00;;;;;;5030456;28;20230;-83
2023/08/11 11:34:37;;;;;;;4.35;2.92;;;26.40;1.00;;;;;;5034165;28;20214;-82
2023/08/11 11:37:05;;;;;;;4.15;2.60;;;26.60;1.00;;;;;;5041277;28;20198;-82
2023/08/11 11:39:47;;;;;;;4.93;2.42;;;26.80;1.00;;;;;;5035001;28;20191;-83
2023/08/11 11:42:14;;;;;;;3.13;2.75;;;26.90;1.00;;;;;;5029825;28;20218;-83
2023/08/11 11:44:46;;;;;;;4.70;2.67;;;27.00;1.00;;;;;;5020910;28;20195;-83
2023/08/11 11:47:16;;;;;;;3.55;2.40;;;27.00;1.00;;;;;;5036131;28;20206;-83
2023/08/11 11:49:55;;;;;;;4.88;2.67;;;27.10;1.00;;;;;;5024686;28;20222;-83
2023/08/11 11:52:25;;;;;;;4.10;2.88;;;27.10;1.00;;;;;;5023100;28;20234;-82
2023/08/11 11:54:55;;;;;;;3.33;2.50;;;26.80;1.00;;;;;;5035722;28;20222;-82
2023/08/11 11:57:27;;;;;;;2.70;2.40;;;27.10;1.00;;;;;;5032798;28;20199;-84
2023/08/11 11:59:54;;;;;;;2.78;2.20;;;27.30;1.00;;;;;;5031171;28;20195;-83
2023/08/11 12:02:23;;;;;;;2.90;2.60;;;27.30;1.00;;;;;;5034353;28;20219;-83
2023/08/11 12:04:51;;;;;;;3.88;2.55;;;27.40;1.00;;;;;;5034626;28;20203;-83
2023/08/11 12:07:31;;;;;;;2.92;2.35;;;27.50;1.00;;;;;;5025854;28;20568;-82
2023/08/11 12:10:00;;;;;;;3.25;2.58;;;27.40;1.00;;;;;;5045329;28;20191;-82
2023/08/11 12:12:29;;;;;;;2.72;2.35;;;27.40;1.00;;;;;;5032047;28;20231;-81
2023/08/11 12:15:02;;;;;;;3.15;2.60;;;27.70;1.00;;;;;;5052212;28;20206;-81
2023/08/11 12:17:32;;;;;;;3.13;2.30;;;27.90;1.00;;;;;;5017188;28;20195;-79
2023/08/11 12:20:01;;;;;;;2.33;2.13;;;28.10;1.00;;;;;;5013986;28;20199;-79
2023/08/11 12:23:03;;;;;;;3.00;2.25;;;27.80;1.00;;;;;;5033784;28;20215;-79
2023/08/11 12:25:32;;;;;;;3.00;2.67;;;28.00;1.00;;;;;;5033444;28;20194;-79
2023/08/11 12:28:01;;;;;;;2.58;2.28;;;28.00;1.00;;;;;;5039915;28;20545;-79
2023/08/11 12:30:29;;;;;;;4.10;2.20;;;28.10;1.00;;;;;;5026179;28;20195;-79
2023/08/11 12:32:56;;;;;;;4.10;2.30;;;28.30;1.00;;;;;;5033318;28;20222;-79
2023/08/11 12:35:24;;;;;;;3.00;2.35;;;28.50;1.00;;;;;;5031145;28;20199;-79
2023/08/11 12:37:51;;;;;;;4.07;2.50;;;28.50;1.00;;;;;;5024951;28;20205;-81
2023/08/11 12:40:21;;;;;;;3.15;2.15;;;28.00;1.00;;;;;;5020843;28;20657;-78
2023/08/11 12:42:51;;;;;;;3.33;2.10;;;28.30;1.00;;;;;;5034535;28;20211;-79
2023/08/11 12:45:19;;;;;;;2.75;2.20;;;28.50;1.00;;;;;;5033088;28;20564;-79
2023/08/11 12:47:46;;;;;;;3.00;2.70;;;28.80;1.00;;;;;;5047727;28;20212;-79
2023/08/11 12:50:13;;;;;;;4.78;2.83;;;28.70;1.00;;;;;;5038140;28;20253;-78
2023/08/11 12:52:41;;;;;;;3.17;2.55;;;28.40;1.00;;;;;;5031644;28;20696;-79
2023/08/11 12:55:10;;;;;;;3.55;2.80;;;28.70;1.00;;;;;;5035960;28;20210;-78
2023/08/11 12:57:37;;;;;;;4.65;2.90;;;28.80;1.00;;;;;;5052076;28;20213;-79
2023/08/11 13:00:10;;;;;;;3.13;2.67;;;28.90;1.00;;;;;;5033802;28;20210;-81
2023/08/11 13:02:37;;;;;;;4.18;2.75;;;29.10;1.00;;;;;;5048166;28;20222;-79
2023/08/11 13:05:08;;;;;;;3.63;3.10;;;29.00;1.00;;;;;;5036800;28;20203;-79
2023/08/11 13:07:37;;;;;;;3.92;2.83;;;29.00;1.00;;;;;;5029811;28;20203;-79
2023/08/11 13:10:05;;;;;;;4.28;3.50;;;29.10;1.00;;;;;;5031484;28;20203;-78
2023/08/11 13:12:32;;;;;;;4.07;3.00;;;28.60;1.00;;;;;;5036215;28;20238;-79
2023/08/11 13:15:00;;;;;;;5.65;3.28;;;28.70;1.00;;;;;;5046683;28;20203;-79